sensor_id;sensor_type;location;lat;lon;timestamp;pressure;altitude;pressure_sealevel;temperature;humidity
61039;BME280;46919;45.816;3.104;2023-07-13T00:01:14;98030.31;;;19.89;72.26
61039;BME280;46919;45.816;3.104;2023-07-13T00:03:40;98028.97;;;19.76;73.04
61039;BME280;46919;45.816;3.104;2023-07-13T00:06:07;98034.22;;;19.67;73.44
61039;BME280;46919;45.816;3.104;2023-07-13T00:08:33;98033.69;;;19.60;74.13
61039;BME280;46919;45.816;3.104;2023-07-13T00:11:02;98031.19;;;19.69;73.77
61039;BME280;46919;45.816;3.104;2023-07-13T00:13:29;98036.13;;;19.72;73.86
61039;BME280;46919;45.816;3.104;2023-07-13T00:15:57;98038.06;;;19.77;73.68
61039;BME280;46919;45.816;3.104;2023-07-13T00:18:23;98039.69;;;19.78;73.75
61039;BME280;46919;45.816;3.104;2023-07-13T00:20:48;98038.88;;;19.77;73.81
61039;BME280;46919;45.816;3.104;2023-07-13T00:23:14;98042.13;;;19.79;74.18
61039;BME280;46919;45.816;3.104;2023-07-13T00:25:39;98043.19;;;19.88;73.63
61039;BME280;46919;45.816;3.104;2023-07-13T00:28:05;98039.63;;;19.88;73.82
61039;BME280;46919;45.816;3.104;2023-07-13T00:30:30;98032.25;;;19.83;73.75
61039;BME280;46919;45.816;3.104;2023-07-13T00:32:56;98038.06;;;19.71;74.22
61039;BME280;46919;45.816;3.104;2023-07-13T00:35:22;98030.34;;;19.73;74.39
61039;BME280;46919;45.816;3.104;2023-07-13T00:37:48;98034.19;;;19.78;74.06
61039;BME280;46919;45.816;3.104;2023-07-13T00:40:15;98030.88;;;19.86;74.14
61039;BME280;46919;45.816;3.104;2023-07-13T00:42:41;98036.09;;;19.82;74.17
61039;BME280;46919;45.816;3.104;2023-07-13T00:47:39;98028.19;;;19.70;74.72
61039;BME280;46919;45.816;3.104;2023-07-13T00:50:08;98025.19;;;19.67;75.04
61039;BME280;46919;45.816;3.104;2023-07-13T00:52:35;98030.66;;;19.62;75.32
61039;BME280;46919;45.816;3.104;2023-07-13T00:55:01;98028.75;;;19.62;75.33
61039;BME280;46919;45.816;3.104;2023-07-13T00:57:28;98032.56;;;19.66;75.28
61039;BME280;46919;45.816;3.104;2023-07-13T00:59:57;98031.72;;;19.71;74.95
61039;BME280;46919;45.816;3.104;2023-07-13T01:02:24;98034.47;;;19.71;75.00
61039;BME280;46919;45.816;3.104;2023-07-13T01:04:49;98041.06;;;19.70;74.55
61039;BME280;46919;45.816;3.104;2023-07-13T01:07:15;98041.59;;;19.72;74.53
61039;BME280;46919;45.816;3.104;2023-07-13T01:09:40;98041.31;;;19.73;74.63
61039;BME280;46919;45.816;3.104;2023-07-13T01:12:06;98044.09;;;19.63;74.88
61039;BME280;46919;45.816;3.104;2023-07-13T01:14:32;98051.22;;;19.64;75.14
61039;BME280;46919;45.816;3.104;2023-07-13T01:16:58;98042.47;;;19.62;74.78
61039;BME280;46919;45.816;3.104;2023-07-13T01:21:51;98040.28;;;19.59;75.52
61039;BME280;46919;45.816;3.104;2023-07-13T01:24:17;98043.00;;;19.64;75.36
61039;BME280;46919;45.816;3.104;2023-07-13T01:26:43;98056.72;;;19.64;74.89
61039;BME280;46919;45.816;3.104;2023-07-13T01:29:08;98049.56;;;19.63;74.88
61039;BME280;46919;45.816;3.104;2023-07-13T01:31:33;98046.31;;;19.61;74.97
61039;BME280;46919;45.816;3.104;2023-07-13T01:34:00;98045.75;;;19.64;74.81
61039;BME280;46919;45.816;3.104;2023-07-13T01:36:25;98041.63;;;19.62;75.01
61039;BME280;46919;45.816;3.104;2023-07-13T01:38:51;98046.81;;;19.73;73.91
61039;BME280;46919;45.816;3.104;2023-07-13T01:41:16;98051.47;;;19.68;72.86
61039;BME280;46919;45.816;3.104;2023-07-13T01:43:42;98048.75;;;19.63;72.32
61039;BME280;46919;45.816;3.104;2023-07-13T01:46:07;98056.72;;;19.59;72.23
61039;BME280;46919;45.816;3.104;2023-07-13T01:48:33;98065.75;;;19.70;71.67
61039;BME280;46919;45.816;3.104;2023-07-13T01:50:58;98059.44;;;19.69;71.55
61039;BME280;46919;45.816;3.104;2023-07-13T01:53:23;98058.38;;;19.65;71.56
61039;BME280;46919;45.816;3.104;2023-07-13T01:55:49;98055.06;;;19.63;71.74
61039;BME280;46919;45.816;3.104;2023-07-13T01:58:14;98054.81;;;19.60;71.49
61039;BME280;46919;45.816;3.104;2023-07-13T02:00:40;98059.50;;;19.49;71.82
61039;BME280;46919;45.816;3.104;2023-07-13T02:03:05;98055.69;;;19.45;72.45
61039;BME280;46919;45.816;3.104;2023-07-13T02:05:30;98038.69;;;19.48;71.75
61039;BME280;46919;45.816;3.104;2023-07-13T02:07:56;98050.75;;;19.42;71.97
61039;BME280;46919;45.816;3.104;2023-07-13T02:10:21;98048.56;;;19.39;71.94
61039;BME280;46919;45.816;3.104;2023-07-13T02:12:48;98049.69;;;19.22;72.23
61039;BME280;46919;45.816;3.104;2023-07-13T02:15:14;98052.19;;;19.18;72.30
61039;BME280;46919;45.816;3.104;2023-07-13T02:17:40;98051.09;;;19.19;72.19
61039;BME280;46919;45.816;3.104;2023-07-13T02:20:06;98054.63;;;19.25;71.96
61039;BME280;46919;45.816;3.104;2023-07-13T02:22:32;98051.63;;;19.32;71.78
61039;BME280;46919;45.816;3.104;2023-07-13T02:24:58;98053.53;;;19.36;71.46
61039;BME280;46919;45.816;3.104;2023-07-13T02:27:23;98042.84;;;19.35;71.23
61039;BME280;46919;45.816;3.104;2023-07-13T02:29:48;98056.53;;;19.35;71.55
61039;BME280;46919;45.816;3.104;2023-07-13T02:32:16;98054.34;;;19.37;71.08
61039;BME280;46919;45.816;3.104;2023-07-13T02:34:42;98050.25;;;19.29;71.26
61039;BME280;46919;45.816;3.104;2023-07-13T02:37:07;98048.88;;;19.22;71.36
61039;BME280;46919;45.816;3.104;2023-07-13T02:39:33;98043.66;;;19.25;71.38
61039;BME280;46919;45.816;3.104;2023-07-13T02:41:59;98040.16;;;19.14;71.39
61039;BME280;46919;45.816;3.104;2023-07-13T02:44:25;98033.28;;;19.12;71.41
61039;BME280;46919;45.816;3.104;2023-07-13T02:46:51;98034.94;;;19.03;71.76
61039;BME280;46919;45.816;3.104;2023-07-13T02:49:16;98044.00;;;19.08;71.67
61039;BME280;46919;45.816;3.104;2023-07-13T02:51:41;98042.09;;;18.98;71.88
61039;BME280;46919;45.816;3.104;2023-07-13T02:54:07;98047.28;;;18.90;72.12
61039;BME280;46919;45.816;3.104;2023-07-13T02:56:33;98045.88;;;18.82;72.48
61039;BME280;46919;45.816;3.104;2023-07-13T02:58:59;98050.56;;;18.76;72.70
61039;BME280;46919;45.816;3.104;2023-07-13T03:01:24;98062.03;;;18.68;73.32
61039;BME280;46919;45.816;3.104;2023-07-13T03:03:51;98058.50;;;18.57;73.93
61039;BME280;46919;45.816;3.104;2023-07-13T03:06:17;98057.13;;;18.55;73.87
61039;BME280;46919;45.816;3.104;2023-07-13T03:08:43;98062.31;;;18.61;73.60
61039;BME280;46919;45.816;3.104;2023-07-13T03:11:12;98067.78;;;18.56;73.60
61039;BME280;46919;45.816;3.104;2023-07-13T03:13:39;98069.41;;;18.47;73.75
61039;BME280;46919;45.816;3.104;2023-07-13T03:16:05;98064.22;;;18.45;73.92
61039;BME280;46919;45.816;3.104;2023-07-13T03:18:31;98071.09;;;18.43;74.00
61039;BME280;46919;45.816;3.104;2023-07-13T03:20:57;98064.50;;;18.44;73.82
61039;BME280;46919;45.816;3.104;2023-07-13T03:23:23;98062.56;;;18.44;73.62
61039;BME280;46919;45.816;3.104;2023-07-13T03:25:48;98057.66;;;18.41;73.72
61039;BME280;46919;45.816;3.104;2023-07-13T03:28:15;98058.44;;;18.32;73.65
61039;BME280;46919;45.816;3.104;2023-07-13T03:30:40;98056.78;;;18.25;73.50
61039;BME280;46919;45.816;3.104;2023-07-13T03:33:06;98060.63;;;18.24;73.73
61039;BME280;46919;45.816;3.104;2023-07-13T03:35:32;98053.50;;;18.18;72.49
61039;BME280;46919;45.816;3.104;2023-07-13T03:37:58;98054.03;;;18.10;72.85
61039;BME280;46919;45.816;3.104;2023-07-13T03:40:25;98054.59;;;18.07;73.21
61039;BME280;46919;45.816;3.104;2023-07-13T03:42:51;98052.94;;;18.01;72.92
61039;BME280;46919;45.816;3.104;2023-07-13T03:45:17;98061.13;;;18.01;72.66
61039;BME280;46919;45.816;3.104;2023-07-13T03:47:42;98056.78;;;18.10;72.24
61039;BME280;46919;45.816;3.104;2023-07-13T03:50:08;98068.28;;;18.17;71.34
61039;BME280;46919;45.816;3.104;2023-07-13T03:52:33;98072.66;;;18.13;70.27
61039;BME280;46919;45.816;3.104;2023-07-13T03:54:58;98074.81;;;18.11;70.19
61039;BME280;46919;45.816;3.104;2023-07-13T03:57:24;98084.66;;;18.07;69.82
61039;BME280;46919;45.816;3.104;2023-07-13T03:59:49;98080.84;;;18.13;69.77
61039;BME280;46919;45.816;3.104;2023-07-13T04:02:15;98082.47;;;18.09;69.76
61039;BME280;46919;45.816;3.104;2023-07-13T04:04:40;98081.34;;;18.00;70.21
61039;BME280;46919;45.816;3.104;2023-07-13T04:07:06;98082.47;;;18.04;70.21
61039;BME280;46919;45.816;3.104;2023-07-13T04:09:33;98079.72;;;17.99;70.60
61039;BME280;46919;45.816;3.104;2023-07-13T04:11:59;98085.69;;;17.90;70.96
61039;BME280;46919;45.816;3.104;2023-07-13T04:14:24;98088.41;;;17.90;70.63
61039;BME280;46919;45.816;3.104;2023-07-13T04:16:49;98087.88;;;17.88;70.89
61039;BME280;46919;45.816;3.104;2023-07-13T04:19:15;98088.38;;;17.85;70.66
61039;BME280;46919;45.816;3.104;2023-07-13T04:21:40;98098.78;;;17.83;70.56
61039;BME280;46919;45.816;3.104;2023-07-13T04:24:06;98105.28;;;17.72;71.00
61039;BME280;46919;45.816;3.104;2023-07-13T04:26:31;98103.06;;;17.64;71.22
61039;BME280;46919;45.816;3.104;2023-07-13T04:28:57;98116.75;;;17.69;71.19
61039;BME280;46919;45.816;3.104;2023-07-13T04:31:22;98108.84;;;17.78;70.60
61039;BME280;46919;45.816;3.104;2023-07-13T04:33:49;98111.88;;;17.81;70.65
61039;BME280;46919;45.816;3.104;2023-07-13T04:36:16;98114.03;;;17.79;70.76
61039;BME280;46919;45.816;3.104;2023-07-13T04:38:41;98119.22;;;17.75;70.80
61039;BME280;46919;45.816;3.104;2023-07-13T04:41:08;98123.34;;;17.78;70.20
61039;BME280;46919;45.816;3.104;2023-07-13T04:43:34;98116.50;;;17.75;70.11
61039;BME280;46919;45.816;3.104;2023-07-13T04:46:18;98119.50;;;17.74;70.78
61039;BME280;46919;45.816;3.104;2023-07-13T04:48:44;98121.69;;;17.77;70.41
61039;BME280;46919;45.816;3.104;2023-07-13T04:51:10;98128.03;;;17.83;70.17
61039;BME280;46919;45.816;3.104;2023-07-13T04:53:35;98124.47;;;17.87;69.88
61039;BME280;46919;45.816;3.104;2023-07-13T04:56:01;98132.66;;;17.82;70.10
61039;BME280;46919;45.816;3.104;2023-07-13T04:58:27;98134.03;;;17.85;69.98
61039;BME280;46919;45.816;3.104;2023-07-13T05:00:53;98135.41;;;17.87;69.11
61039;BME280;46919;45.816;3.104;2023-07-13T05:03:19;98136.81;;;17.90;69.36
61039;BME280;46919;45.816;3.104;2023-07-13T05:05:55;98143.69;;;17.98;69.34
61039;BME280;46919;45.816;3.104;2023-07-13T05:08:20;98148.09;;;17.99;69.83
61039;BME280;46919;45.816;3.104;2023-07-13T05:10:46;98149.47;;;18.06;69.86
61039;BME280;46919;45.816;3.104;2023-07-13T05:13:11;98145.41;;;18.14;69.58
61039;BME280;46919;45.816;3.104;2023-07-13T05:15:36;98147.59;;;18.12;69.56
61039;BME280;46919;45.816;3.104;2023-07-13T05:18:02;98147.84;;;18.10;69.22
61039;BME280;46919;45.816;3.104;2023-07-13T05:20:27;98140.78;;;18.15;69.66
61039;BME280;46919;45.816;3.104;2023-07-13T05:22:52;98142.16;;;18.22;69.51
61039;BME280;46919;45.816;3.104;2023-07-13T05:25:18;98143.25;;;18.26;69.39
61039;BME280;46919;45.816;3.104;2023-07-13T05:27:44;98147.06;;;18.25;69.79
61039;BME280;46919;45.816;3.104;2023-07-13T05:30:11;98139.94;;;18.14;69.75
61039;BME280;46919;45.816;3.104;2023-07-13T05:32:37;98147.31;;;18.14;69.18
61039;BME280;46919;45.816;3.104;2023-07-13T05:35:02;98144.25;;;18.00;69.29
61039;BME280;46919;45.816;3.104;2023-07-13T05:37:28;98154.38;;;17.99;70.34
61039;BME280;46919;45.816;3.104;2023-07-13T05:39:53;98142.03;;;17.91;70.17
61039;BME280;46919;45.816;3.104;2023-07-13T05:42:18;98149.69;;;17.89;71.49
61039;BME280;46919;45.816;3.104;2023-07-13T05:44:44;98156.03;;;18.00;72.32
61039;BME280;46919;45.816;3.104;2023-07-13T05:47:09;98157.72;;;18.12;72.33
61039;BME280;46919;45.816;3.104;2023-07-13T05:49:35;98163.97;;;18.02;72.41
61039;BME280;46919;45.816;3.104;2023-07-13T05:52:00;98167.94;;;17.84;71.60
61039;BME280;46919;45.816;3.104;2023-07-13T05:54:26;98172.50;;;17.73;71.66
61039;BME280;46919;45.816;3.104;2023-07-13T05:56:52;98168.69;;;17.69;71.54
61039;BME280;46919;45.816;3.104;2023-07-13T05:59:18;98170.56;;;17.68;71.67
61039;BME280;46919;45.816;3.104;2023-07-13T06:01:43;98169.22;;;17.71;71.66
61039;BME280;46919;45.816;3.104;2023-07-13T06:04:08;98170.88;;;17.72;71.46
61039;BME280;46919;45.816;3.104;2023-07-13T06:06:34;98168.19;;;17.82;71.88
61039;BME280;46919;45.816;3.104;2023-07-13T06:08:59;98164.72;;;17.92;71.51
61039;BME280;46919;45.816;3.104;2023-07-13T06:11:26;98166.13;;;18.00;70.91
61039;BME280;46919;45.816;3.104;2023-07-13T06:13:53;98161.75;;;17.99;70.64
61039;BME280;46919;45.816;3.104;2023-07-13T06:16:19;98160.41;;;18.06;70.51
61039;BME280;46919;45.816;3.104;2023-07-13T06:18:45;98170.59;;;18.16;70.74
61039;BME280;46919;45.816;3.104;2023-07-13T06:21:15;98176.34;;;18.20;69.97
61039;BME280;46919;45.816;3.104;2023-07-13T06:23:41;98176.06;;;18.16;70.05
61039;BME280;46919;45.816;3.104;2023-07-13T06:26:06;98172.53;;;18.21;70.03
61039;BME280;46919;45.816;3.104;2023-07-13T06:28:32;98169.81;;;18.31;69.93
61039;BME280;46919;45.816;3.104;2023-07-13T06:30:58;98164.09;;;18.38;69.74
61039;BME280;46919;45.816;3.104;2023-07-13T06:33:25;98174.75;;;18.34;69.24
61039;BME280;46919;45.816;3.104;2023-07-13T06:35:50;98173.94;;;18.34;69.46
61039;BME280;46919;45.816;3.104;2023-07-13T06:38:16;98179.91;;;18.25;69.10
61039;BME280;46919;45.816;3.104;2023-07-13T06:40:41;98177.50;;;18.34;68.62
61039;BME280;46919;45.816;3.104;2023-07-13T06:43:06;98175.88;;;18.38;68.72
61039;BME280;46919;45.816;3.104;2023-07-13T06:45:36;98176.16;;;18.47;68.15
61039;BME280;46919;45.816;3.104;2023-07-13T06:48:05;98184.38;;;18.47;67.42
61039;BME280;46919;45.816;3.104;2023-07-13T06:50:30;98186.56;;;18.50;68.81
61039;BME280;46919;45.816;3.104;2023-07-13T06:52:56;98182.22;;;18.59;68.18
61039;BME280;46919;45.816;3.104;2023-07-13T06:55:21;98184.16;;;18.69;67.45
61039;BME280;46919;45.816;3.104;2023-07-13T06:57:47;98180.59;;;18.79;66.61
61039;BME280;46919;45.816;3.104;2023-07-13T07:00:12;98182.00;;;18.81;66.83
61039;BME280;46919;45.816;3.104;2023-07-13T07:02:38;98188.00;;;18.83;66.56
61039;BME280;46919;45.816;3.104;2023-07-13T07:05:04;98184.47;;;18.78;66.67
61039;BME280;46919;45.816;3.104;2023-07-13T07:07:29;98181.47;;;18.90;66.51
61039;BME280;46919;45.816;3.104;2023-07-13T07:09:55;98180.66;;;19.05;65.44
61039;BME280;46919;45.816;3.104;2023-07-13T07:12:20;98182.84;;;19.08;64.99
61039;BME280;46919;45.816;3.104;2023-07-13T07:14:45;98174.66;;;19.13;64.75
61039;BME280;46919;45.816;3.104;2023-07-13T07:17:11;98183.13;;;19.27;64.49
61039;BME280;46919;45.816;3.104;2023-07-13T07:19:37;98178.22;;;19.34;64.64
61039;BME280;46919;45.816;3.104;2023-07-13T07:22:02;98175.16;;;19.46;64.89
61039;BME280;46919;45.816;3.104;2023-07-13T07:24:28;98180.91;;;19.70;65.48
61039;BME280;46919;45.816;3.104;2023-07-13T07:26:54;98174.03;;;19.78;63.84
61039;BME280;46919;45.816;3.104;2023-07-13T07:29:19;98169.09;;;19.90;63.31
61039;BME280;46919;45.816;3.104;2023-07-13T07:31:44;98180.28;;;20.09;63.51
61039;BME280;46919;45.816;3.104;2023-07-13T07:34:10;98184.28;;;20.37;63.46
61039;BME280;46919;45.816;3.104;2023-07-13T07:36:35;98177.59;;;20.54;62.16
61039;BME280;46919;45.816;3.104;2023-07-13T07:39:00;98183.09;;;20.54;61.71
61039;BME280;46919;45.816;3.104;2023-07-13T07:41:26;98184.75;;;20.55;61.59
61039;BME280;46919;45.816;3.104;2023-07-13T07:43:51;98183.84;;;20.70;61.05
61039;BME280;46919;45.816;3.104;2023-07-13T07:46:16;98186.03;;;20.73;59.89
61039;BME280;46919;45.816;3.104;2023-07-13T07:48:42;98184.56;;;20.91;59.65
61039;BME280;46919;45.816;3.104;2023-07-13T07:51:07;98192.72;;;21.01;58.93
61039;BME280;46919;45.816;3.104;2023-07-13T07:53:33;98199.63;;;20.93;60.52
61039;BME280;46919;45.816;3.104;2023-07-13T07:55:58;98204.88;;;20.90;59.58
61039;BME280;46919;45.816;3.104;2023-07-13T07:58:23;98205.53;;;20.71;59.27
61039;BME280;46919;45.816;3.104;2023-07-13T08:00:49;98202.81;;;20.66;58.63
61039;BME280;46919;45.816;3.104;2023-07-13T08:03:14;98214.63;;;20.61;59.39
61039;BME280;46919;45.816;3.104;2023-07-13T08:05:39;98206.13;;;20.68;59.22
61039;BME280;46919;45.816;3.104;2023-07-13T08:08:05;98207.50;;;20.66;59.10
61039;BME280;46919;45.816;3.104;2023-07-13T08:10:30;98206.72;;;20.50;59.26
61039;BME280;46919;45.816;3.104;2023-07-13T08:12:56;98205.06;;;20.54;59.24
61039;BME280;46919;45.816;3.104;2023-07-13T08:15:21;98208.06;;;20.57;58.54
61039;BME280;46919;45.816;3.104;2023-07-13T08:17:48;98205.41;;;20.42;58.37
61039;BME280;46919;45.816;3.104;2023-07-13T08:20:14;98205.09;;;20.49;57.17
61039;BME280;46919;45.816;3.104;2023-07-13T08:22:40;98204.19;;;20.63;56.48
61039;BME280;46919;45.816;3.104;2023-07-13T08:25:05;98196.78;;;20.69;54.96
61039;BME280;46919;45.816;3.104;2023-07-13T08:27:31;98200.53;;;20.84;54.76
61039;BME280;46919;45.816;3.104;2023-07-13T08:29:57;98194.31;;;21.07;53.98
61039;BME280;46919;45.816;3.104;2023-07-13T08:32:23;98195.78;;;21.34;54.08
61039;BME280;46919;45.816;3.104;2023-07-13T08:34:49;98196.44;;;21.55;52.35
61039;BME280;46919;45.816;3.104;2023-07-13T08:37:15;98197.56;;;21.54;52.54
61039;BME280;46919;45.816;3.104;2023-07-13T08:39:41;98202.09;;;21.69;52.61
61039;BME280;46919;45.816;3.104;2023-07-13T08:42:14;98209.19;;;21.75;50.71
61039;BME280;46919;45.816;3.104;2023-07-13T08:47:39;98203.03;;;21.20;51.45
61039;BME280;46919;45.816;3.104;2023-07-13T08:50:11;98204.22;;;21.08;50.38
61039;BME280;46919;45.816;3.104;2023-07-13T08:52:39;98210.41;;;20.85;48.92
61039;BME280;46919;45.816;3.104;2023-07-13T08:55:15;98210.19;;;20.81;50.31
61039;BME280;46919;45.816;3.104;2023-07-13T08:57:44;98202.00;;;21.10;50.18
61039;BME280;46919;45.816;3.104;2023-07-13T09:00:12;98199.09;;;21.31;48.61
61039;BME280;46919;45.816;3.104;2023-07-13T09:02:45;98201.44;;;21.48;48.78
61039;BME280;46919;45.816;3.104;2023-07-13T09:05:25;98194.91;;;21.73;47.33
61039;BME280;46919;45.816;3.104;2023-07-13T09:08:16;98193.69;;;21.84;46.96
61039;BME280;46919;45.816;3.104;2023-07-13T09:14:13;98183.28;;;22.30;47.63
61039;BME280;46919;45.816;3.104;2023-07-13T09:16:45;98183.56;;;22.04;47.75
61039;BME280;46919;45.816;3.104;2023-07-13T09:19:21;98188.53;;;22.02;47.35
61039;BME280;46919;45.816;3.104;2023-07-13T09:21:51;98179.91;;;21.60;48.39
61039;BME280;46919;45.816;3.104;2023-07-13T09:25:00;98181.00;;;21.59;48.28
61039;BME280;46919;45.816;3.104;2023-07-13T09:27:41;98187.09;;;21.80;47.91
61039;BME280;46919;45.816;3.104;2023-07-13T09:32:41;98181.50;;;21.91;47.95
61039;BME280;46919;45.816;3.104;2023-07-13T09:35:12;98171.09;;;22.12;47.13
61039;BME280;46919;45.816;3.104;2023-07-13T09:37:43;98173.41;;;22.23;47.24
61039;BME280;46919;45.816;3.104;2023-07-13T09:40:17;98178.34;;;22.51;45.90
61039;BME280;46919;45.816;3.104;2023-07-13T09:42:46;98176.31;;;22.56;44.98
61039;BME280;46919;45.816;3.104;2023-07-13T09:45:21;98178.56;;;22.54;44.46
61039;BME280;46919;45.816;3.104;2023-07-13T09:48:11;98180.47;;;22.35;42.07
61039;BME280;46919;45.816;3.104;2023-07-13T09:50:38;98182.78;;;22.22;43.94
61039;BME280;46919;45.816;3.104;2023-07-13T09:53:04;98178.56;;;22.54;44.44
61039;BME280;46919;45.816;3.104;2023-07-13T09:55:40;98181.53;;;22.58;43.67
61039;BME280;46919;45.816;3.104;2023-07-13T10:00:41;98190.88;;;22.14;43.37
61039;BME280;46919;45.816;3.104;2023-07-13T10:03:20;98198.72;;;22.01;42.20
61039;BME280;46919;45.816;3.104;2023-07-13T10:05:48;98192.63;;;22.04;43.33
61039;BME280;46919;45.816;3.104;2023-07-13T10:08:21;98188.38;;;22.41;43.40
61039;BME280;46919;45.816;3.104;2023-07-13T10:10:52;98182.97;;;22.93;42.65
61039;BME280;46919;45.816;3.104;2023-07-13T10:13:44;98185.56;;;23.04;40.89
61039;BME280;46919;45.816;3.104;2023-07-13T10:16:11;98181.31;;;22.92;39.99
61039;BME280;46919;45.816;3.104;2023-07-13T10:18:42;98181.16;;;23.03;39.74
61039;BME280;46919;45.816;3.104;2023-07-13T10:21:17;98188.31;;;23.23;40.09
61039;BME280;46919;45.816;3.104;2023-07-13T10:23:46;98191.09;;;23.23;39.92
61039;BME280;46919;45.816;3.104;2023-07-13T10:26:17;98176.41;;;23.08;39.54
61039;BME280;46919;45.816;3.104;2023-07-13T10:28:47;98177.50;;;23.26;40.60
61039;BME280;46919;45.816;3.104;2023-07-13T10:31:16;98179.19;;;23.41;40.29
61039;BME280;46919;45.816;3.104;2023-07-13T10:33:42;98171.38;;;23.62;40.20
61039;BME280;46919;45.816;3.104;2023-07-13T10:36:59;98182.91;;;23.64;40.56
61039;BME280;46919;45.816;3.104;2023-07-13T10:39:06;98190.41;;;23.78;40.75
61039;BME280;46919;45.816;3.104;2023-07-13T10:41:36;98188.63;;;23.87;40.83
61039;BME280;46919;45.816;3.104;2023-07-13T10:44:04;98193.19;;;23.78;41.14
61039;BME280;46919;45.816;3.104;2023-07-13T10:46:32;98191.53;;;23.77;39.83
61039;BME280;46919;45.816;3.104;2023-07-13T10:49:05;98185.72;;;23.78;39.91
61039;BME280;46919;45.816;3.104;2023-07-13T10:51:33;98187.91;;;24.09;40.00
61039;BME280;46919;45.816;3.104;2023-07-13T10:54:18;98181.66;;;24.31;40.15
61039;BME280;46919;45.816;3.104;2023-07-13T10:56:45;98189.63;;;24.47;40.13
61039;BME280;46919;45.816;3.104;2023-07-13T10:59:26;98179.72;;;24.59;37.97
61039;BME280;46919;45.816;3.104;2023-07-13T11:02:25;98171.53;;;24.91;38.88
61039;BME280;46919;45.816;3.104;2023-07-13T11:04:53;98173.44;;;25.04;39.65
61039;BME280;46919;45.816;3.104;2023-07-13T11:07:25;98179.06;;;24.76;37.90
61039;BME280;46919;45.816;3.104;2023-07-13T11:09:56;98187.50;;;24.57;38.14
61039;BME280;46919;45.816;3.104;2023-07-13T11:19:53;98163.56;;;24.89;38.11
61039;BME280;46919;45.816;3.104;2023-07-13T11:22:24;98163.34;;;24.63;37.67
61039;BME280;46919;45.816;3.104;2023-07-13T11:24:56;98161.09;;;24.65;37.80
61039;BME280;46919;45.816;3.104;2023-07-13T11:27:41;98166.00;;;24.91;35.90
61039;BME280;46919;45.816;3.104;2023-07-13T11:38:27;98156.53;;;24.83;37.33
61039;BME280;46919;45.816;3.104;2023-07-13T11:40:54;98151.78;;;24.84;36.72
61039;BME280;46919;45.816;3.104;2023-07-13T11:43:21;98144.28;;;24.98;37.09
61039;BME280;46919;45.816;3.104;2023-07-13T11:45:49;98147.69;;;24.95;36.13
61039;BME280;46919;45.816;3.104;2023-07-13T11:48:27;98155.63;;;24.74;34.64
61039;BME280;46919;45.816;3.104;2023-07-13T11:51:00;98152.06;;;24.46;36.51
61039;BME280;46919;45.816;3.104;2023-07-13T11:53:29;98153.94;;;24.87;36.29
61039;BME280;46919;45.816;3.104;2023-07-13T11:55:57;98149.81;;;24.98;36.80
61039;BME280;46919;45.816;3.104;2023-07-13T11:58:24;98143.16;;;24.99;37.70
61039;BME280;46919;45.816;3.104;2023-07-13T12:00:51;98137.88;;;25.34;37.25
61039;BME280;46919;45.816;3.104;2023-07-13T12:03:20;98137.25;;;25.37;37.76
61039;BME280;46919;45.816;3.104;2023-07-13T12:06:22;98142.25;;;25.89;36.53
61039;BME280;46919;45.816;3.104;2023-07-13T12:08:48;98146.97;;;26.29;36.27
61039;BME280;46919;45.816;3.104;2023-07-13T12:11:18;98132.16;;;26.42;35.06
61039;BME280;46919;45.816;3.104;2023-07-13T12:13:44;98130.19;;;26.34;35.58
61039;BME280;46919;45.816;3.104;2023-07-13T12:18:47;98136.72;;;26.38;34.13
61039;BME280;46919;45.816;3.104;2023-07-13T12:21:17;98121.66;;;26.21;34.82
61039;BME280;46919;45.816;3.104;2023-07-13T12:23:45;98117.81;;;26.57;34.94
61039;BME280;46919;45.816;3.104;2023-07-13T12:26:12;98114.41;;;27.13;35.22
61039;BME280;46919;45.816;3.104;2023-07-13T12:31:25;98123.56;;;26.79;33.68
61039;BME280;46919;45.816;3.104;2023-07-13T12:34:02;98122.72;;;27.13;33.71
61039;BME280;46919;45.816;3.104;2023-07-13T12:36:33;98118.16;;;27.08;31.44
61039;BME280;46919;45.816;3.104;2023-07-13T12:39:03;98115.22;;;26.61;33.70
61039;BME280;46919;45.816;3.104;2023-07-13T12:41:30;98114.44;;;26.87;33.69
61039;BME280;46919;45.816;3.104;2023-07-13T12:43:55;98114.41;;;27.22;34.15
61039;BME280;46919;45.816;3.104;2023-07-13T12:46:24;98108.66;;;27.92;33.08
61039;BME280;46919;45.816;3.104;2023-07-13T12:48:54;98115.81;;;27.93;32.10
61039;BME280;46919;45.816;3.104;2023-07-13T12:51:24;98121.03;;;27.64;33.10
61039;BME280;46919;45.816;3.104;2023-07-13T12:53:56;98116.78;;;27.58;31.72
61039;BME280;46919;45.816;3.104;2023-07-13T12:56:26;98120.75;;;27.31;33.52
61039;BME280;46919;45.816;3.104;2023-07-13T12:58:58;98114.91;;;27.80;33.37
61039;BME280;46919;45.816;3.104;2023-07-13T13:01:31;98116.84;;;27.41;32.37
61039;BME280;46919;45.816;3.104;2023-07-13T13:04:01;98123.41;;;27.75;32.93
61039;BME280;46919;45.816;3.104;2023-07-13T13:06:29;98120.56;;;27.92;33.12
61039;BME280;46919;45.816;3.104;2023-07-13T13:08:57;98120.03;;;28.08;32.98
61039;BME280;46919;45.816;3.104;2023-07-13T13:11:24;98120.16;;;28.20;33.98
61039;BME280;46919;45.816;3.104;2023-07-13T13:13:51;98113.38;;;28.30;31.99
61039;BME280;46919;45.816;3.104;2023-07-13T13:18:42;98119.84;;;28.43;31.65
61039;BME280;46919;45.816;3.104;2023-07-13T13:21:09;98109.28;;;28.27;31.78
61039;BME280;46919;45.816;3.104;2023-07-13T13:23:35;98106.97;;;28.29;31.75
61039;BME280;46919;45.816;3.104;2023-07-13T13:26:01;98115.72;;;28.49;32.15
61039;BME280;46919;45.816;3.104;2023-07-13T13:28:27;98112.16;;;28.40;31.98
61039;BME280;46919;45.816;3.104;2023-07-13T13:30:53;98105.38;;;28.28;33.47
61039;BME280;46919;45.816;3.104;2023-07-13T13:33:20;98105.69;;;28.78;31.50
61039;BME280;46919;45.816;3.104;2023-07-13T13:35:46;98105.69;;;28.78;31.82
61039;BME280;46919;45.816;3.104;2023-07-13T13:38:17;98107.19;;;28.96;31.49
61039;BME280;46919;45.816;3.104;2023-07-13T13:40:45;98101.72;;;29.21;31.22
61039;BME280;46919;45.816;3.104;2023-07-13T13:43:22;98103.50;;;29.04;30.88